Time;durP1;ratioP1;P1;durP2;ratioP2;P2;SDS_P1;SDS_P2;PMS_P1;PMS_P2;Temp;Humidity;BMP_temperature;BMP_pressure;BME280_temperature;BME280_humidity;BME280_pressure;Samples;Min_cycle;Max_cycle;Signal;HPM_P1;HPM_P2
2021/07/12 00:02:00;;;;;;;;;4.33;4.33;;;;;-149.00;100.00;66333.84;5108236;27;45906;-79
2021/07/12 00:04:25;;;;;;;;;5.00;4.67;;;;;-149.00;100.00;66333.84;5113435;27;45323;-79
2021/07/12 00:06:51;;;;;;;;;6.00;6.00;;;;;-149.00;100.00;66333.84;5109674;27;45303;-80
2021/07/12 00:09:17;;;;;;;;;4.67;4.67;;;;;-149.00;100.00;66333.84;5103413;27;45292;-80
2021/07/12 00:11:43;;;;;;;;;4.67;4.67;;;;;-149.00;100.00;66333.84;5104347;27;45236;-80
2021/07/12 00:14:08;;;;;;;;;6.00;4.67;;;;;-149.00;100.00;66333.84;5102425;27;45337;-80
2021/07/12 00:16:34;;;;;;;;;5.00;5.00;;;;;-149.00;100.00;66333.84;5103187;27;45330;-79
2021/07/12 00:18:59;;;;;;;;;5.33;5.33;;;;;-149.00;100.00;66333.84;5085957;27;47140;-80
2021/07/12 00:21:25;;;;;;;;;7.00;5.67;;;;;-149.00;100.00;66333.84;5113101;27;45283;-79
2021/07/12 00:23:50;;;;;;;;;4.00;3.33;;;;;-149.00;100.00;66333.84;5117717;27;45054;-79
2021/07/12 00:26:16;;;;;;;;;7.33;5.33;;;;;-149.00;100.00;66333.84;5113746;27;45218;-80
2021/07/12 00:28:42;;;;;;;;;6.33;6.33;;;;;-149.00;100.00;66333.84;5115767;27;46208;-79
2021/07/12 00:31:07;;;;;;;;;6.00;6.00;;;;;-149.00;100.00;66333.84;5097152;27;45985;-79
2021/07/12 00:33:33;;;;;;;;;6.00;6.00;;;;;-149.00;100.00;66333.84;5115233;27;45157;-79
2021/07/12 00:35:59;;;;;;;;;6.33;6.00;;;;;-149.00;100.00;66333.84;5117943;27;45556;-78
2021/07/12 00:38:25;;;;;;;;;4.00;4.00;;;;;-149.00;100.00;66333.84;5097603;27;47202;-80
2021/07/12 00:40:50;;;;;;;;;6.00;6.00;;;;;-149.00;100.00;66333.84;5104145;27;45330;-80
2021/07/12 00:43:15;;;;;;;;;6.00;6.00;;;;;-149.00;100.00;66333.84;5104484;27;45337;-80
2021/07/12 00:45:41;;;;;;;;;5.33;5.00;;;;;-149.00;100.00;66333.84;5104162;27;45418;-79
2021/07/12 00:48:07;;;;;;;;;5.33;5.33;;;;;-149.00;100.00;66333.84;5104139;27;46051;-79
2021/07/12 00:50:35;;;;;;;;;6.67;5.67;;;;;-149.00;100.00;66333.84;5103526;27;45241;-80
2021/07/12 00:53:02;;;;;;;;;5.00;5.00;;;;;-149.00;100.00;66333.84;5099629;27;45335;-79
2021/07/12 00:55:44;;;;;;;;;5.00;4.67;;;;;-149.00;100.00;66333.84;5116181;27;46324;-79
2021/07/12 00:58:22;;;;;;;;;7.33;6.33;;;;;-149.00;100.00;66333.84;5118622;27;45251;-81
2021/07/12 01:00:50;;;;;;;;;3.67;3.67;;;;;-149.00;100.00;66333.84;5116999;27;45392;-79
2021/07/12 01:03:16;;;;;;;;;6.00;5.00;;;;;-149.00;100.00;66333.84;5111725;27;45318;-80
2021/07/12 01:05:42;;;;;;;;;6.00;6.00;;;;;-149.00;100.00;66333.84;5096837;27;45478;-80
2021/07/12 01:08:08;;;;;;;;;2.00;2.00;;;;;-149.00;100.00;66333.84;5113123;27;45225;-79
2021/07/12 01:10:35;;;;;;;;;4.67;4.67;;;;;-149.00;100.00;66333.84;5113151;27;45338;-79
2021/07/12 01:13:19;;;;;;;;;5.33;5.33;;;;;-149.00;100.00;66333.84;5110124;27;45282;-80
2021/07/12 01:16:08;;;;;;;;;4.00;4.00;;;;;-149.00;100.00;66333.84;5101173;27;47227;-80
2021/07/12 01:18:48;;;;;;;;;4.00;4.00;;;;;-149.00;100.00;66333.84;5104157;27;45556;-80
2021/07/12 01:21:29;;;;;;;;;5.00;5.00;;;;;-149.00;100.00;66333.84;5102161;27;45332;-81
2021/07/12 01:24:09;;;;;;;;;7.00;6.00;;;;;-149.00;100.00;66333.84;5102358;27;45520;-80
2021/07/12 01:26:53;;;;;;;;;5.00;5.00;;;;;-149.00;100.00;66333.84;5110876;27;45301;-79
2021/07/12 01:29:23;;;;;;;;;5.33;5.33;;;;;-149.00;100.00;66333.84;5118055;27;46144;-79
2021/07/12 01:32:01;;;;;;;;;6.00;6.00;;;;;-149.00;100.00;66333.84;5118413;27;45335;-79
2021/07/12 01:34:40;;;;;;;;;6.67;6.00;;;;;-149.00;100.00;66333.84;5107270;27;45317;-80
2021/07/12 01:37:23;;;;;;;;;6.00;6.00;;;;;-149.00;100.00;66333.84;5105040;27;45165;-80
2021/07/12 01:39:57;;;;;;;;;6.00;6.00;;;;;-149.00;100.00;66333.84;5102378;27;45488;-80
2021/07/12 01:42:33;;;;;;;;;6.00;5.00;;;;;-149.00;100.00;66333.84;5102487;27;45310;-81
2021/07/12 01:45:01;;;;;;;;;8.00;8.00;;;;;-149.00;100.00;66333.84;5084149;27;45238;-80
2021/07/12 01:47:41;;;;;;;;;6.00;6.00;;;;;-149.00;100.00;66333.84;5115125;27;44574;-81
2021/07/12 01:50:25;;;;;;;;;7.00;6.00;;;;;-149.00;100.00;66333.84;5117591;27;45140;-80
2021/07/12 01:53:09;;;;;;;;;4.00;4.00;;;;;-149.00;100.00;66333.84;5117516;27;44680;-80
2021/07/12 01:55:48;;;;;;;;;6.00;5.00;;;;;-149.00;100.00;66333.84;5093478;27;45184;-80
2021/07/12 01:58:19;;;;;;;;;4.33;4.33;;;;;-149.00;100.00;66333.84;5102242;27;45233;-81
2021/07/12 02:00:46;;;;;;;;;6.33;5.33;;;;;-149.00;100.00;66333.84;5102343;27;45361;-81
2021/07/12 02:03:15;;;;;;;;;3.67;3.67;;;;;-149.00;100.00;66333.84;5102203;27;45330;-80
2021/07/12 02:05:42;;;;;;;;;7.00;7.00;;;;;-149.00;100.00;66333.84;5101729;27;45302;-80
2021/07/12 02:08:09;;;;;;;;;6.00;6.00;;;;;-149.00;100.00;66333.84;5108167;27;45370;-80
2021/07/12 02:10:35;;;;;;;;;4.33;4.33;;;;;-149.00;100.00;66333.84;5113248;27;45345;-80
2021/07/12 02:13:01;;;;;;;;;7.00;7.00;;;;;-149.00;100.00;66333.84;5116949;27;44642;-79
2021/07/12 02:15:27;;;;;;;;;7.00;6.33;;;;;-149.00;100.00;66333.84;5114244;27;44664;-81
2021/07/12 02:17:53;;;;;;;;;5.33;4.00;;;;;-149.00;100.00;66333.84;5092085;27;47037;-80
2021/07/12 02:20:23;;;;;;;;;3.00;3.00;;;;;-149.00;100.00;66333.84;5108676;27;45231;-80
2021/07/12 02:22:50;;;;;;;;;5.00;5.00;;;;;-149.00;100.00;66333.84;5107979;27;45445;-80
2021/07/12 02:25:17;;;;;;;;;4.33;4.00;;;;;-149.00;100.00;66333.84;5114344;27;45371;-80
2021/07/12 02:27:44;;;;;;;;;5.00;5.00;;;;;-149.00;100.00;66333.84;5094691;27;46100;-80
2021/07/12 02:30:10;;;;;;;;;8.00;8.00;;;;;-149.00;100.00;66333.84;5117500;27;48563;-80
2021/07/12 02:32:37;;;;;;;;;6.00;6.00;;;;;-149.00;100.00;66333.84;5099988;27;45322;-80
2021/07/12 02:35:07;;;;;;;;;5.00;5.00;;;;;-149.00;100.00;66333.84;5109773;27;45191;-80
2021/07/12 02:37:38;;;;;;;;;5.67;5.33;;;;;-149.00;100.00;66333.84;5101399;27;45273;-80
2021/07/12 02:40:07;;;;;;;;;5.00;5.00;;;;;-149.00;100.00;66333.84;5102486;27;45264;-80
2021/07/12 02:42:34;;;;;;;;;4.67;4.67;;;;;-149.00;100.00;66333.84;5102561;27;45393;-81
2021/07/12 02:45:01;;;;;;;;;4.00;4.00;;;;;-149.00;100.00;66333.84;5101083;27;45278;-80
2021/07/12 02:47:26;;;;;;;;;4.00;4.00;;;;;-149.00;100.00;66333.84;5100932;27;45394;-81
2021/07/12 02:49:52;;;;;;;;;6.67;6.33;;;;;-149.00;100.00;66333.84;5106941;27;45301;-80
2021/07/12 02:52:19;;;;;;;;;7.33;5.00;;;;;-149.00;100.00;66333.84;5107327;27;45555;-80
2021/07/12 02:54:47;;;;;;;;;4.00;4.00;;;;;-149.00;100.00;66333.84;5113781;27;45322;-79
2021/07/12 02:57:13;;;;;;;;;6.67;4.00;;;;;-149.00;100.00;66333.84;5099239;27;47435;-79
2021/07/12 02:59:39;;;;;;;;;7.33;7.33;;;;;-149.00;100.00;66333.84;5115558;27;46126;-80
2021/07/12 03:02:04;;;;;;;;;6.00;6.00;;;;;-149.00;100.00;66333.84;5112287;27;45137;-80
2021/07/12 03:04:30;;;;;;;;;6.67;6.67;;;;;-149.00;100.00;66333.84;5088310;27;45140;-80
2021/07/12 03:06:58;;;;;;;;;5.33;5.33;;;;;-149.00;100.00;66333.84;5101433;27;45307;-80
2021/07/12 03:09:35;;;;;;;;;4.67;4.67;;;;;-149.00;100.00;66333.84;5101187;27;45555;-80
2021/07/12 03:12:22;;;;;;;;;5.00;5.00;;;;;-149.00;100.00;66333.84;5100729;27;45391;-80
2021/07/12 03:14:58;;;;;;;;;5.00;5.00;;;;;-149.00;100.00;66333.84;5101524;27;45200;-80
2021/07/12 03:17:27;;;;;;;;;6.00;6.00;;;;;-149.00;100.00;66333.84;5114803;27;45501;-79
2021/07/12 03:19:55;;;;;;;;;6.00;6.00;;;;;-149.00;100.00;66333.84;5100691;27;47286;-79
2021/07/12 03:22:22;;;;;;;;;6.33;5.00;;;;;-149.00;100.00;66333.84;5119475;27;45262;-80
2021/07/12 03:24:50;;;;;;;;;5.00;5.00;;;;;-149.00;100.00;66333.84;5106338;27;45236;-80
2021/07/12 03:27:18;;;;;;;;;6.33;6.00;;;;;-149.00;100.00;66333.84;5113336;27;45399;-79
2021/07/12 03:29:46;;;;;;;;;6.00;6.00;;;;;-149.00;100.00;66333.84;5096108;27;46326;-79
2021/07/12 03:32:13;;;;;;;;;5.33;5.33;;;;;-149.00;100.00;66333.84;5117673;27;45313;-79
2021/07/12 03:34:39;;;;;;;;;6.00;6.00;;;;;-149.00;100.00;66333.84;5120441;27;45205;-81
2021/07/12 03:37:05;;;;;;;;;6.00;6.00;;;;;-149.00;100.00;66333.84;5118677;27;45285;-79
2021/07/12 03:39:31;;;;;;;;;5.33;5.00;;;;;-149.00;100.00;66333.84;5114222;27;46174;-79
2021/07/12 03:41:58;;;;;;;;;6.00;6.00;;;;;-149.00;100.00;66333.84;5097860;27;45234;-79
2021/07/12 03:44:24;;;;;;;;;5.33;5.00;;;;;-149.00;100.00;66333.84;5111908;27;44720;-79
2021/07/12 03:46:50;;;;;;;;;6.00;6.00;;;;;-149.00;100.00;66333.84;5105780;27;46146;-80
2021/07/12 03:49:17;;;;;;;;;7.33;5.00;;;;;-149.00;100.00;66333.84;5102310;27;47248;-80
2021/07/12 03:51:46;;;;;;;;;6.33;5.00;;;;;-149.00;100.00;66333.84;5104440;27;45268;-79
2021/07/12 03:54:12;;;;;;;;;5.00;5.00;;;;;-149.00;100.00;66333.84;5105324;27;45310;-79
2021/07/12 03:56:38;;;;;;;;;6.00;6.00;;;;;-149.00;100.00;66333.84;5104936;27;45429;-80
2021/07/12 03:59:03;;;;;;;;;3.33;3.00;;;;;-149.00;100.00;66333.84;5087142;27;46977;-79
2021/07/12 04:01:29;;;;;;;;;6.33;6.00;;;;;-149.00;100.00;66333.84;5105572;27;45321;-80
2021/07/12 04:03:55;;;;;;;;;7.00;7.00;;;;;-149.00;100.00;66333.84;5105927;27;45306;-79
2021/07/12 04:06:21;;;;;;;;;5.67;5.67;;;;;-149.00;100.00;66333.84;5107232;27;45298;-79
2021/07/12 04:08:47;;;;;;;;;6.33;5.00;;;;;-149.00;100.00;66333.84;5108935;27;45329;-79
2021/07/12 04:11:14;;;;;;;;;5.00;5.00;;;;;-149.00;100.00;66333.84;5089700;27;46166;-78
2021/07/12 04:13:40;;;;;;;;;5.00;5.00;;;;;-149.00;100.00;66333.84;5102626;27;45219;-78
2021/07/12 04:16:05;;;;;;;;;6.00;6.00;;;;;-149.00;100.00;66333.84;5081314;27;46257;-78
2021/07/12 04:18:31;;;;;;;;;6.00;6.00;;;;;-149.00;100.00;66333.84;5099303;27;45437;-78
2021/07/12 04:20:57;;;;;;;;;4.00;4.00;;;;;-149.00;100.00;66333.84;5099432;27;45226;-78
2021/07/12 04:23:23;;;;;;;;;6.33;6.33;;;;;-149.00;100.00;66333.84;5099568;27;45371;-78
2021/07/12 04:25:48;;;;;;;;;5.33;5.33;;;;;-149.00;100.00;66333.84;5099488;27;45308;-78
2021/07/12 04:28:14;;;;;;;;;5.00;5.00;;;;;-149.00;100.00;66333.84;5099484;27;45233;-79
2021/07/12 04:30:39;;;;;;;;;5.00;4.00;;;;;-149.00;100.00;66333.84;5099263;27;45329;-78
2021/07/12 04:33:04;;;;;;;;;5.00;5.00;;;;;-149.00;100.00;66333.84;5083792;27;45583;-78
2021/07/12 04:35:30;;;;;;;;;4.67;4.67;;;;;-149.00;100.00;66333.84;5084826;27;46946;-78
2021/07/12 04:37:55;;;;;;;;;5.00;4.00;;;;;-149.00;100.00;66333.84;5103884;27;45860;-78
2021/07/12 04:40:21;;;;;;;;;4.00;4.00;;;;;-149.00;100.00;66333.84;5103478;27;45317;-78
2021/07/12 04:42:46;;;;;;;;;4.33;4.33;;;;;-149.00;100.00;66333.84;5103215;27;45303;-79
2021/07/12 04:45:13;;;;;;;;;4.00;4.00;;;;;-149.00;100.00;66333.84;5105068;27;45486;-79
2021/07/12 04:47:38;;;;;;;;;4.00;4.00;;;;;-149.00;100.00;66333.84;5104641;27;46185;-79
2021/07/12 04:50:05;;;;;;;;;5.00;4.00;;;;;-149.00;100.00;66333.84;5104275;27;45202;-79
2021/07/12 04:52:32;;;;;;;;;4.67;4.67;;;;;-149.00;100.00;66333.84;5103716;27;45220;-79
2021/07/12 04:54:57;;;;;;;;;4.00;4.00;;;;;-149.00;100.00;66333.84;5087020;27;46137;-80
2021/07/12 04:57:23;;;;;;;;;2.33;2.33;;;;;-149.00;100.00;66333.84;5105056;27;45519;-78
2021/07/12 04:59:48;;;;;;;;;5.00;4.67;;;;;-149.00;100.00;66333.84;5105088;27;45369;-78
2021/07/12 05:02:13;;;;;;;;;3.67;3.67;;;;;-149.00;100.00;66333.84;5104596;27;45339;-79
2021/07/12 05:04:40;;;;;;;;;5.33;5.00;;;;;-149.00;100.00;66333.84;5106991;27;45333;-80
2021/07/12 05:07:06;;;;;;;;;5.67;4.00;;;;;-149.00;100.00;66333.84;5107846;27;45308;-80
2021/07/12 05:09:32;;;;;;;;;3.00;3.00;;;;;-149.00;100.00;66333.84;5087731;27;46334;-80
2021/07/12 05:11:58;;;;;;;;;4.67;4.67;;;;;-149.00;100.00;66333.84;5107207;27;45343;-80
2021/07/12 05:14:25;;;;;;;;;4.00;4.00;;;;;-149.00;100.00;66333.84;5106961;27;45485;-79
2021/07/12 05:16:51;;;;;;;;;4.00;4.00;;;;;-149.00;100.00;66333.84;5104058;27;45349;-78
2021/07/12 05:19:17;;;;;;;;;4.67;4.67;;;;;-149.00;100.00;66333.84;5106058;27;45276;-79
2021/07/12 05:21:43;;;;;;;;;4.00;4.00;;;;;-149.00;100.00;66333.84;5103958;27;45487;-78
2021/07/12 05:24:08;;;;;;;;;4.00;4.00;;;;;-149.00;100.00;66333.84;5104565;27;45280;-79
2021/07/12 05:26:34;;;;;;;;;3.33;3.33;;;;;-149.00;100.00;66333.84;5104277;27;46261;-80
2021/07/12 05:28:59;;;;;;;;;5.67;5.33;;;;;-149.00;100.00;66333.84;5086390;27;45328;-79
2021/07/12 05:31:25;;;;;;;;;6.00;6.00;;;;;-149.00;100.00;66333.84;5102623;27;45231;-80
2021/07/12 05:33:50;;;;;;;;;4.33;4.33;;;;;-149.00;100.00;66333.84;5103467;27;45497;-80
2021/07/12 05:36:16;;;;;;;;;5.00;5.00;;;;;-149.00;100.00;66333.84;5101946;27;45290;-79
2021/07/12 05:38:41;;;;;;;;;4.67;4.67;;;;;-149.00;100.00;66333.84;5102884;27;45291;-80
2021/07/12 05:41:07;;;;;;;;;6.00;6.00;;;;;-149.00;100.00;66333.84;5105063;27;45236;-78
2021/07/12 05:43:32;;;;;;;;;4.67;4.67;;;;;-149.00;100.00;66333.84;5084165;27;46187;-80
2021/07/12 05:45:58;;;;;;;;;5.00;5.00;;;;;-149.00;100.00;66333.84;5102270;27;46161;-79
2021/07/12 05:48:23;;;;;;;;;6.33;6.33;;;;;-149.00;100.00;66333.84;5102005;27;45260;-79
2021/07/12 05:50:48;;;;;;;;;6.00;6.00;;;;;-149.00;100.00;66333.84;5083226;27;45503;-80
2021/07/12 05:53:15;;;;;;;;;7.00;7.00;;;;;-149.00;100.00;66333.84;5107502;27;45509;-81
2021/07/12 05:55:41;;;;;;;;;6.00;6.00;;;;;-149.00;100.00;66333.84;5113417;27;45228;-82
2021/07/12 05:58:07;;;;;;;;;7.00;7.00;;;;;-149.00;100.00;66333.84;5107255;27;45341;-81
2021/07/12 06:00:32;;;;;;;;;6.33;6.33;;;;;-149.00;100.00;66333.84;5095572;27;45592;-81
2021/07/12 06:02:58;;;;;;;;;8.33;5.00;;;;;-149.00;100.00;66333.84;5103832;27;45395;-81
2021/07/12 06:05:23;;;;;;;;;6.67;6.67;;;;;-149.00;100.00;66333.84;5103222;27;46257;-79
2021/07/12 06:07:49;;;;;;;;;8.33;8.33;;;;;-149.00;100.00;66333.84;5102142;27;45379;-78
2021/07/12 06:10:15;;;;;;;;;8.67;6.67;;;;;-149.00;100.00;66333.84;5084619;27;45318;-79
2021/07/12 06:12:40;;;;;;;;;8.00;8.00;;;;;-149.00;100.00;66333.84;5101402;27;45433;-78
2021/07/12 06:15:07;;;;;;;;;9.33;9.33;;;;;-149.00;100.00;66333.84;5082755;27;47268;-79
2021/07/12 06:17:33;;;;;;;;;8.00;8.00;;;;;-149.00;100.00;66333.84;5082022;27;45555;-78
2021/07/12 06:19:59;;;;;;;;;6.33;6.33;;;;;-149.00;100.00;66333.84;5101341;27;45349;-78
2021/07/12 06:22:24;;;;;;;;;7.67;6.00;;;;;-149.00;100.00;66333.84;5100770;27;45479;-78
2021/07/12 06:24:50;;;;;;;;;6.67;6.67;;;;;-149.00;100.00;66333.84;5082660;27;47272;-78
2021/07/12 06:27:16;;;;;;;;;8.33;5.33;;;;;-149.00;100.00;66333.84;5101188;27;45188;-78
2021/07/12 06:29:42;;;;;;;;;4.67;4.67;;;;;-149.00;100.00;66333.84;5097956;27;45455;-79
2021/07/12 06:32:08;;;;;;;;;8.00;8.00;;;;;-149.00;100.00;66333.84;5076692;27;46053;-78
2021/07/12 06:34:33;;;;;;;;;7.33;7.33;;;;;-149.00;100.00;66333.84;5099785;27;45548;-78
2021/07/12 06:36:58;;;;;;;;;7.67;7.00;;;;;-149.00;100.00;66333.84;5082098;27;45752;-78
2021/07/12 06:39:24;;;;;;;;;7.67;7.67;;;;;-149.00;100.00;66333.84;5101366;27;45449;-79
2021/07/12 06:41:49;;;;;;;;;5.00;5.00;;;;;-149.00;100.00;66333.84;5101071;27;45317;-77
2021/07/12 06:44:14;;;;;;;;;8.00;6.33;;;;;-149.00;100.00;66333.84;5101527;27;45291;-78
2021/07/12 06:46:40;;;;;;;;;9.33;7.00;;;;;-149.00;100.00;66333.84;5102353;27;45410;-78
2021/07/12 06:49:05;;;;;;;;;8.67;8.33;;;;;-149.00;100.00;66333.84;5105487;27;45283;-78
2021/07/12 06:51:31;;;;;;;;;9.00;8.67;;;;;-149.00;100.00;66333.84;5082990;27;46182;-78
2021/07/12 06:53:56;;;;;;;;;8.33;8.00;;;;;-149.00;100.00;66333.84;5099728;27;46138;-79
2021/07/12 06:56:22;;;;;;;;;6.67;6.67;;;;;-149.00;100.00;66333.84;5081600;27;45776;-78
2021/07/12 06:58:47;;;;;;;;;6.67;6.00;;;;;-149.00;100.00;66333.84;5100662;27;45310;-78
2021/07/12 07:01:13;;;;;;;;;7.00;7.00;;;;;-149.00;100.00;66333.84;5100610;27;45421;-78
2021/07/12 07:03:38;;;;;;;;;6.00;5.67;;;;;-149.00;100.00;66333.84;5100412;27;45655;-78
2021/07/12 07:06:04;;;;;;;;;7.00;6.67;;;;;-149.00;100.00;66333.84;5100286;27;45306;-78
2021/07/12 07:08:30;;;;;;;;;9.67;6.67;;;;;-149.00;100.00;66333.84;5101060;27;45329;-77
2021/07/12 07:10:55;;;;;;;;;6.00;6.00;;;;;-149.00;100.00;66333.84;5100685;27;45593;-78
2021/07/12 07:13:20;;;;;;;;;8.00;7.00;;;;;-149.00;100.00;66333.84;5100453;27;45286;-78
2021/07/12 07:15:46;;;;;;;;;6.00;6.00;;;;;-149.00;100.00;66333.84;5100109;27;45294;-78
2021/07/12 07:18:11;;;;;;;;;6.00;6.00;;;;;-149.00;100.00;66333.84;5100530;27;45267;-77
2021/07/12 07:20:37;;;;;;;;;8.67;6.00;;;;;-149.00;100.00;66333.84;5101097;27;45322;-78
2021/07/12 07:23:03;;;;;;;;;5.67;5.67;;;;;-149.00;100.00;66333.84;5102363;27;45546;-77
2021/07/12 07:25:28;;;;;;;;;6.00;6.00;;;;;-149.00;100.00;66333.84;5101869;27;45319;-78
2021/07/12 07:27:54;;;;;;;;;5.67;5.67;;;;;-149.00;100.00;66333.84;5102022;27;45384;-77
2021/07/12 07:30:20;;;;;;;;;7.00;7.00;;;;;-149.00;100.00;66333.84;5100327;27;45420;-77
2021/07/12 07:32:45;;;;;;;;;6.33;6.33;;;;;-149.00;100.00;66333.84;5076937;27;46989;-77
2021/07/12 07:35:11;;;;;;;;;6.00;5.33;;;;;-149.00;100.00;66333.84;5098098;27;45424;-78
2021/07/12 07:37:37;;;;;;;;;5.00;5.00;;;;;-149.00;100.00;66333.84;5098049;27;45473;-77
2021/07/12 07:40:08;;;;;;;;;6.00;6.00;;;;;-149.00;100.00;66333.84;5098042;27;45602;-78
2021/07/12 07:42:33;;;;;;;;;5.67;5.67;;;;;-149.00;100.00;66333.84;5099024;27;45628;-79
2021/07/12 07:45:01;;;;;;;;;6.67;6.67;;;;;-149.00;100.00;66333.84;5077107;27;45482;-80
2021/07/12 07:47:27;;;;;;;;;6.67;6.67;;;;;-149.00;100.00;66333.84;5079235;28;45370;-83
2021/07/12 07:49:52;;;;;;;;;5.00;5.00;;;;;-149.00;100.00;66333.84;5086554;27;45360;-76
2021/07/12 07:52:18;;;;;;;;;6.00;4.67;;;;;-149.00;100.00;66333.84;5105166;27;45542;-77
2021/07/12 07:54:43;;;;;;;;;8.67;6.00;;;;;-149.00;100.00;66333.84;5098636;27;45395;-77
2021/07/12 07:57:09;;;;;;;;;7.00;5.67;;;;;-149.00;100.00;66333.84;5099337;27;45347;-75
2021/07/12 07:59:34;;;;;;;;;7.33;7.33;;;;;-149.00;100.00;66333.84;5079504;27;46094;-77
2021/07/12 08:01:59;;;;;;;;;7.00;7.00;;;;;-149.00;100.00;66333.84;5098684;27;45374;-76
2021/07/12 08:04:25;;;;;;;;;7.00;5.00;;;;;-149.00;100.00;66333.84;5079688;27;45368;-77
2021/07/12 08:06:50;;;;;;;;;9.00;7.00;;;;;-149.00;100.00;66333.84;5097890;27;45394;-78
2021/07/12 08:09:16;;;;;;;;;9.33;8.67;;;;;-149.00;100.00;66333.84;5096907;27;45290;-77
2021/07/12 08:11:41;;;;;;;;;6.67;6.67;;;;;-149.00;100.00;66333.84;5086650;27;47148;-76
2021/07/12 08:14:06;;;;;;;;;5.67;5.67;;;;;-149.00;100.00;66333.84;5114752;27;45745;-76
2021/07/12 08:16:32;;;;;;;;;6.67;6.67;;;;;-149.00;100.00;66333.84;5099237;27;46054;-79
2021/07/12 08:18:58;;;;;;;;;5.67;5.67;;;;;-149.00;100.00;66333.84;5096452;27;45244;-80
2021/07/12 08:21:23;;;;;;;;;8.00;8.00;;;;;-149.00;100.00;66333.84;5081063;27;47029;-79
2021/07/12 08:23:48;;;;;;;;;6.33;6.33;;;;;-149.00;100.00;66333.84;5082722;28;45395;-78
2021/07/12 08:26:14;;;;;;;;;7.67;7.67;;;;;-149.00;100.00;66333.84;5090926;27;45373;-77
2021/07/12 08:28:41;;;;;;;;;9.67;9.67;;;;;-149.00;100.00;66333.84;5085988;27;45528;-78
2021/07/12 08:31:06;;;;;;;;;8.00;7.67;;;;;-149.00;100.00;66333.84;5102087;27;45392;-78
2021/07/12 08:33:32;;;;;;;;;7.00;6.33;;;;;-149.00;100.00;66333.84;5101915;27;45343;-82
2021/07/12 08:35:59;;;;;;;;;8.00;7.33;;;;;-149.00;100.00;66333.84;5100181;27;45362;-77
2021/07/12 08:38:25;;;;;;;;;9.00;9.00;;;;;-149.00;100.00;66333.84;5101056;27;45659;-80
2021/07/12 08:40:55;;;;;;;;;7.00;6.67;;;;;-149.00;100.00;66333.84;5101721;27;46398;-80
2021/07/12 08:43:21;;;;;;;;;9.00;9.00;;;;;-149.00;100.00;66333.84;5100150;27;45425;-79
2021/07/12 08:45:47;;;;;;;;;7.00;7.00;;;;;-149.00;100.00;66333.84;5100318;27;45369;-80
2021/07/12 08:48:14;;;;;;;;;10.00;9.00;;;;;-149.00;100.00;66333.84;5075536;27;47221;-79
2021/07/12 08:50:39;;;;;;;;;9.67;9.67;;;;;-149.00;100.00;66333.84;5092491;27;46034;-80
2021/07/12 08:53:05;;;;;;;;;8.33;8.33;;;;;-149.00;100.00;66333.84;5101301;27;45374;-79
2021/07/12 08:55:30;;;;;;;;;8.00;7.33;;;;;-149.00;100.00;66333.84;5102403;27;45301;-79
2021/07/12 08:57:55;;;;;;;;;8.33;8.33;;;;;-149.00;100.00;66333.84;5096949;27;45361;-79
2021/07/12 09:00:46;;;;;;;;;8.67;8.67;;;;;-149.00;100.00;66333.84;5101003;27;46484;-79
2021/07/12 09:03:19;;;;;;;;;8.00;8.00;;;;;-149.00;100.00;66333.84;5101147;27;45427;-78
2021/07/12 09:05:51;;;;;;;;;7.00;7.00;;;;;-149.00;100.00;66333.84;5098160;27;45414;-79
2021/07/12 09:08:36;;;;;;;;;9.00;8.33;;;;;-149.00;100.00;66333.84;5097594;27;45445;-79
2021/07/12 09:11:35;;;;;;;;;9.00;9.00;;;;;-149.00;100.00;66333.84;5104300;27;45851;-79
2021/07/12 09:14:07;;;;;;;;;8.33;8.33;;;;;-149.00;100.00;66333.84;5092493;27;45291;-79
2021/07/12 09:16:38;;;;;;;;;7.00;7.00;;;;;-149.00;100.00;66333.84;5100969;27;45278;-78
2021/07/12 09:19:11;;;;;;;;;10.00;10.00;;;;;-149.00;100.00;66333.84;5096729;27;45844;-78
2021/07/12 09:21:51;;;;;;;;;8.67;8.67;;;;;-149.00;100.00;66333.84;5100724;27;45429;-78
2021/07/12 09:24:45;;;;;;;;;9.00;9.00;;;;;-149.00;100.00;66333.84;5086765;27;45486;-78
2021/07/12 09:27:19;;;;;;;;;7.33;7.33;;;;;-149.00;100.00;66333.84;5095519;27;45704;-78
2021/07/12 09:29:46;;;;;;;;;9.33;9.33;;;;;-149.00;100.00;66333.84;5100545;27;45463;-80
2021/07/12 09:32:17;;;;;;;;;8.67;7.33;;;;;-149.00;100.00;66333.84;5099331;27;45475;-78
2021/07/12 09:34:46;;;;;;;;;10.00;10.00;;;;;-149.00;100.00;66333.84;5098771;27;45475;-79
2021/07/12 09:37:14;;;;;;;;;8.33;8.33;;;;;-149.00;100.00;66333.84;5082330;27;45391;-78
2021/07/12 09:39:44;;;;;;;;;9.00;9.00;;;;;-149.00;100.00;66333.84;5099750;27;45353;-78
2021/07/12 09:42:11;;;;;;;;;10.00;10.00;;;;;-149.00;100.00;66333.84;5081380;27;48468;-79
2021/07/12 09:44:43;;;;;;;;;8.33;7.33;;;;;-149.00;100.00;66333.84;5081787;27;45727;-78
2021/07/12 09:47:21;;;;;;;;;9.33;9.00;;;;;-149.00;100.00;66333.84;5099025;27;45298;-78
2021/07/12 09:49:47;;;;;;;;;8.67;8.67;;;;;-149.00;100.00;66333.84;5079653;28;45283;-79
2021/07/12 09:52:15;;;;;;;;;7.67;7.67;;;;;-149.00;100.00;66333.84;5079887;28;46347;-81
2021/07/12 09:54:43;;;;;;;;;6.67;6.67;;;;;-149.00;100.00;66333.84;5089889;27;45327;-79
2021/07/12 09:57:14;;;;;;;;;10.00;9.67;;;;;-149.00;100.00;66333.84;5081657;27;45307;-78
2021/07/12 10:00:01;;;;;;;;;9.00;9.00;;;;;-149.00;100.00;66333.84;5078346;27;46095;-78
2021/07/12 10:02:32;;;;;;;;;11.33;9.67;;;;;-149.00;100.00;66333.84;5095882;27;45499;-78
2021/07/12 10:05:01;;;;;;;;;6.33;6.33;;;;;-149.00;100.00;66333.84;5096937;27;45903;-78
2021/07/12 10:07:27;;;;;;;;;9.67;9.67;;;;;-149.00;100.00;66333.84;5099660;27;45422;-78
2021/07/12 10:09:53;;;;;;;;;10.33;9.00;;;;;-149.00;100.00;66333.84;5099600;27;45527;-78
2021/07/12 10:12:18;;;;;;;;;11.00;10.67;;;;;-149.00;100.00;66333.84;5098449;27;46470;-78
2021/07/12 10:14:44;;;;;;;;;9.00;9.00;;;;;-149.00;100.00;66333.84;5088838;27;45534;-80
2021/07/12 10:17:11;;;;;;;;;10.00;9.33;;;;;-149.00;100.00;66333.84;5089030;27;46029;-80
2021/07/12 10:19:37;;;;;;;;;9.00;9.00;;;;;-149.00;100.00;66333.84;5086919;27;45457;-79
2021/07/12 10:22:04;;;;;;;;;8.67;8.67;;;;;-149.00;100.00;66333.84;5083733;27;45371;-79
2021/07/12 10:24:37;;;;;;;;;8.67;8.33;;;;;-149.00;100.00;66333.84;5079709;28;45353;-79
2021/07/12 10:27:05;;;;;;;;;8.33;8.00;;;;;-149.00;100.00;66333.84;5079504;28;45307;-80
2021/07/12 10:29:33;;;;;;;;;8.00;8.00;;;;;-149.00;100.00;66333.84;5080099;27;45505;-80
2021/07/12 10:32:26;;;;;;;;;10.33;10.33;;;;;-149.00;100.00;66333.84;5100069;27;45300;-79
2021/07/12 10:34:54;;;;;;;;;9.33;9.33;;;;;-149.00;100.00;66333.84;5092275;27;45386;-80
2021/07/12 10:37:28;;;;;;;;;8.67;8.67;;;;;-149.00;100.00;66333.84;5081484;27;45554;-79
2021/07/12 10:39:56;;;;;;;;;10.00;9.67;;;;;-149.00;100.00;66333.84;5099029;27;45491;-78
2021/07/12 10:42:40;;;;;;;;;10.67;10.67;;;;;-149.00;100.00;66333.84;5096370;27;45488;-78
2021/07/12 10:45:20;;;;;;;;;10.00;10.00;;;;;-149.00;100.00;66333.84;5076418;27;45568;-79
2021/07/12 10:47:50;;;;;;;;;10.00;10.00;;;;;-149.00;100.00;66333.84;5094569;27;45605;-78
2021/07/12 10:50:41;;;;;;;;;8.67;8.67;;;;;-149.00;100.00;66333.84;5084923;27;46295;-77
2021/07/12 10:53:15;;;;;;;;;28.00;27.00;;;;;-149.00;100.00;66333.84;5099914;27;45358;-79
2021/07/12 10:55:42;;;;;;;;;13.00;13.00;;;;;-149.00;100.00;66333.84;5080420;27;45420;-79
2021/07/12 10:58:29;;;;;;;;;8.00;8.00;;;;;-149.00;100.00;66333.84;5079958;28;45489;-79
2021/07/12 11:01:00;;;;;;;;;9.67;8.67;;;;;-149.00;100.00;66333.84;5077078;28;47464;-78
2021/07/12 11:03:43;;;;;;;;;9.00;9.00;;;;;-149.00;100.00;66333.84;5078066;28;48393;-79
2021/07/12 11:06:26;;;;;;;;;10.00;10.00;;;;;-149.00;100.00;66333.84;5079439;28;45343;-78
2021/07/12 11:08:53;;;;;;;;;10.00;9.00;;;;;-149.00;100.00;66333.84;5079984;28;45372;-78
2021/07/12 11:11:18;;;;;;;;;9.67;9.67;;;;;-149.00;100.00;66333.84;5061637;28;47208;-78
2021/07/12 11:14:08;;;;;;;;;9.67;9.00;;;;;-149.00;100.00;66333.84;5079735;28;46149;-78
2021/07/12 11:16:37;;;;;;;;;9.33;9.00;;;;;-149.00;100.00;66333.84;5067740;28;45323;-78